Terminal Aerodrome Forecast
Issued by NWS Lake Charles, LA

Home | Current Version | Previous Version | Text Only | Print | Product List | Glossary On
Versions: 1 2 3 4 5 6 7 8 9 10 11 12 13 14 15 16 17 18 19 20 21
000
FTUS44 KLCH 041100
TAFBPT
TAF
KBPT 041130Z 0412/0512 16008KT 6SM BR SCT004 OVC015
      TEMPO 0412/0416 3SM BR OVC004
     FM041600 17012G17KT P6SM VCSH OVC015
     FM050100 16007KT 4SM BR VCSH OVC005
     FM050600 35016G22KT 4SM RA BR OVC007=

USA.gov is the U.S. government's official web portal to all federal, state and local government web resources and services.